createdAt,value
2017-01-19T00:00:09.369Z,93.51
2017-01-19T00:00:49.960Z,93.51
2017-01-19T00:01:30.533Z,93.61
2017-01-19T00:02:11.179Z,93.61
2017-01-19T00:02:51.776Z,93.42
2017-01-19T00:03:33.397Z,93.61
2017-01-19T00:04:13.951Z,93.51
2017-01-19T00:04:54.637Z,93.42
2017-01-19T00:05:35.324Z,93.61
2017-01-19T00:06:15.902Z,93.7
2017-01-19T00:06:56.487Z,93.61
2017-01-19T00:07:37.143Z,93.51
2017-01-19T00:08:18.729Z,93.51
2017-01-19T00:08:59.339Z,93.61
2017-01-19T00:09:39.917Z,93.51
2017-01-19T00:10:20.585Z,93.51
2017-01-19T00:11:01.257Z,93.42
2017-01-19T00:11:41.851Z,93.51
2017-01-19T00:12:22.482Z,93.32
2017-01-19T00:13:03.073Z,93.32
2017-01-19T00:13:43.782Z,93.23
2017-01-19T00:14:24.341Z,93.23
2017-01-19T00:15:04.936Z,92.95
2017-01-19T00:15:45.565Z,93.32
2017-01-19T00:16:26.129Z,93.32
2017-01-19T00:17:06.787Z,92.95
2017-01-19T00:17:47.459Z,93.42
2017-01-19T00:18:28.072Z,93.51
2017-01-19T00:19:08.749Z,93.51
2017-01-19T00:19:49.478Z,93.51
2017-01-19T00:20:30.125Z,93.13
2017-01-19T00:21:10.794Z,93.61
2017-01-19T00:21:51.439Z,93.51
2017-01-19T00:22:32.090Z,93.61
2017-01-19T00:23:12.806Z,93.51
2017-01-19T00:23:53.494Z,93.23
2017-01-19T00:24:34.078Z,93.32
2017-01-19T00:25:14.713Z,93.32
2017-01-19T00:25:55.393Z,93.32
2017-01-19T00:26:37.066Z,93.32
2017-01-19T00:27:18.723Z,93.32
2017-01-19T00:27:59.411Z,93.23
2017-01-19T00:28:40.038Z,93.32
2017-01-19T00:29:20.702Z,93.23
2017-01-19T00:30:01.347Z,93.23
2017-01-19T00:30:42.003Z,93.61
2017-01-19T00:31:22.643Z,93.23
2017-01-19T00:32:03.307Z,93.23
2017-01-19T00:32:43.948Z,93.42
2017-01-19T00:33:24.611Z,93.42
2017-01-19T00:34:05.263Z,93.61
2017-01-19T00:34:45.849Z,93.61
2017-01-19T00:35:27.464Z,93.61
2017-01-19T00:36:08.042Z,93.61
2017-01-19T00:36:48.695Z,93.61
2017-01-19T00:37:29.379Z,93.61
2017-01-19T00:38:10.681Z,93.61
2017-01-19T00:38:51.240Z,93.51
2017-01-19T00:39:31.918Z,93.51
2017-01-19T00:40:12.563Z,93.51
2017-01-19T00:40:53.218Z,93.51
2017-01-19T00:41:33.894Z,93.51
2017-01-19T00:42:14.508Z,93.51
2017-01-19T00:42:55.171Z,93.51
2017-01-19T00:43:35.825Z,93.51
2017-01-19T00:44:16.471Z,93.51
2017-01-19T00:44:57.116Z,93.51
2017-01-19T00:45:37.692Z,93.51
2017-01-19T00:46:18.347Z,93.51
2017-01-19T00:46:58.970Z,93.51
2017-01-19T00:47:39.544Z,93.51
2017-01-19T00:48:20.198Z,93.51
2017-01-19T00:49:01.856Z,93.51
2017-01-19T00:49:42.435Z,93.51
2017-01-19T00:50:24.131Z,93.51
2017-01-19T00:51:04.757Z,93.61
2017-01-19T00:51:45.433Z,93.61
2017-01-19T00:52:26.060Z,93.61
2017-01-19T00:53:06.717Z,93.51
2017-01-19T00:53:47.353Z,93.23
2017-01-19T00:54:28.003Z,93.32
2017-01-19T00:55:08.660Z,93.23
2017-01-19T00:55:49.334Z,93.32
2017-01-19T00:56:29.979Z,93.42
2017-01-19T00:57:10.615Z,93.51
2017-01-19T00:57:51.293Z,93.7
2017-01-19T00:58:31.950Z,93.51
2017-01-19T00:59:12.574Z,93.51
2017-01-19T00:59:53.182Z,93.51
2017-01-19T01:00:33.819Z,93.51
2017-01-19T01:01:14.476Z,93.61
2017-01-19T01:01:55.129Z,93.51
2017-01-19T01:02:35.790Z,93.13
2017-01-19T01:03:16.444Z,93.23
2017-01-19T01:03:57.086Z,93.61
2017-01-19T01:04:37.733Z,93.23
2017-01-19T01:05:18.385Z,93.23
2017-01-19T01:05:59.046Z,93.13
2017-01-19T01:06:39.688Z,93.23
2017-01-19T01:07:20.343Z,93.32
2017-01-19T01:08:00.994Z,93.51
2017-01-19T01:08:41.655Z,93.23
2017-01-19T01:09:22.316Z,93.13
2017-01-19T01:10:02.961Z,93.23
2017-01-19T01:10:43.606Z,93.23
2017-01-19T01:11:24.267Z,93.42
2017-01-19T01:12:04.927Z,93.51
2017-01-19T01:12:45.573Z,93.7
2017-01-19T01:13:26.225Z,93.8
2017-01-19T01:14:06.872Z,93.42
2017-01-19T01:14:47.464Z,93.8
2017-01-19T01:15:28.024Z,94.08
2017-01-19T01:16:08.623Z,94.08
2017-01-19T01:16:49.219Z,94.08
2017-01-19T01:17:29.788Z,93.89
2017-01-19T01:18:10.441Z,94.08
2017-01-19T01:18:51.039Z,94.08
2017-01-19T01:19:31.633Z,93.8
2017-01-19T01:20:12.176Z,93.8
2017-01-19T01:20:52.866Z,93.89
2017-01-19T01:21:33.510Z,93.8
2017-01-19T01:22:14.168Z,94.27
2017-01-19T01:22:54.821Z,94.08
2017-01-19T01:23:35.472Z,94.18
2017-01-19T01:24:16.112Z,94.08
2017-01-19T01:24:56.718Z,93.99
2017-01-19T01:25:37.304Z,93.99
2017-01-19T01:26:17.878Z,93.99
2017-01-19T01:26:58.532Z,93.89
2017-01-19T01:27:39.111Z,93.99
2017-01-19T01:28:19.707Z,93.61
2017-01-19T01:29:00.273Z,93.8
2017-01-19T01:29:40.928Z,93.61
2017-01-19T01:30:21.566Z,93.8
2017-01-19T01:31:02.132Z,93.99
2017-01-19T01:31:42.793Z,93.8
2017-01-19T01:32:23.428Z,93.8
2017-01-19T01:33:04.043Z,93.8
2017-01-19T01:33:44.652Z,93.8
2017-01-19T01:34:25.278Z,93.8
2017-01-19T01:35:05.850Z,93.61
2017-01-19T01:35:47.530Z,93.8
2017-01-19T01:36:28.158Z,93.8
2017-01-19T01:37:08.727Z,93.8
2017-01-19T01:37:49.384Z,93.89
2017-01-19T01:38:30.020Z,93.8
2017-01-19T01:39:10.613Z,93.8
2017-01-19T01:39:51.241Z,94.08
2017-01-19T01:40:31.892Z,93.89
2017-01-19T01:41:12.550Z,93.99
2017-01-19T01:41:53.204Z,93.99
2017-01-19T01:42:33.854Z,93.89
2017-01-19T01:43:14.509Z,93.99
2017-01-19T01:43:55.165Z,93.89
2017-01-19T01:44:35.814Z,93.8
2017-01-19T01:45:16.399Z,93.99
2017-01-19T01:45:56.992Z,93.89
2017-01-19T01:46:37.559Z,93.99
2017-01-19T01:47:18.204Z,94.27
2017-01-19T01:47:58.810Z,93.99
2017-01-19T01:48:39.402Z,93.89
2017-01-19T01:49:19.973Z,93.8
2017-01-19T01:50:00.628Z,94.27
2017-01-19T01:50:41.328Z,94.27
2017-01-19T01:51:21.909Z,94.18
2017-01-19T01:52:02.491Z,94.27
2017-01-19T01:52:43.140Z,94.36
2017-01-19T01:53:23.728Z,94.55
2017-01-19T01:54:04.314Z,94.36
2017-01-19T01:54:44.866Z,94.46
2017-01-19T01:55:25.541Z,94.46
2017-01-19T01:56:06.180Z,94.55
2017-01-19T01:56:46.844Z,94.55
2017-01-19T01:57:27.501Z,94.27
2017-01-19T01:58:08.154Z,93.99
2017-01-19T01:58:48.811Z,93.99
2017-01-19T01:59:29.452Z,94.08
2017-01-19T02:00:10.091Z,94.08
2017-01-19T02:00:50.666Z,94.18
2017-01-19T02:01:31.324Z,94.08
2017-01-19T02:02:11.953Z,94.18
2017-01-19T02:02:52.521Z,93.99
2017-01-19T02:03:33.182Z,94.08
2017-01-19T02:04:13.809Z,94.36
2017-01-19T02:04:54.393Z,94.18
2017-01-19T02:05:36.066Z,94.18
2017-01-19T02:06:16.684Z,94.27
2017-01-19T02:06:57.259Z,94.27
2017-01-19T02:07:37.913Z,94.36
2017-01-19T02:08:18.549Z,94.18
2017-01-19T02:08:59.115Z,94.18
2017-01-19T02:09:39.769Z,94.18
2017-01-19T02:10:20.400Z,94.18
2017-01-19T02:11:00.974Z,94.18
2017-01-19T02:11:41.628Z,94.18
2017-01-19T02:12:22.218Z,94.27
2017-01-19T02:13:02.821Z,94.18
2017-01-19T02:13:43.395Z,94.27
2017-01-19T02:14:24.028Z,94.27
2017-01-19T02:15:04.632Z,94.27
2017-01-19T02:15:45.220Z,94.27
2017-01-19T02:16:25.783Z,94.18
2017-01-19T02:17:06.441Z,94.27
2017-01-19T02:17:48.048Z,94.27
2017-01-19T02:18:28.658Z,94.27
2017-01-19T02:19:09.238Z,94.18
2017-01-19T02:19:49.874Z,94.08
2017-01-19T02:20:30.506Z,94.36
2017-01-19T02:21:11.080Z,94.18
2017-01-19T02:21:51.729Z,94.27
2017-01-19T02:22:32.361Z,94.18
2017-01-19T02:23:12.933Z,93.99
2017-01-19T02:23:53.581Z,93.99
2017-01-19T02:24:34.229Z,93.99
2017-01-19T02:25:14.890Z,93.99
2017-01-19T02:25:55.523Z,94.36
2017-01-19T02:26:36.191Z,93.99
2017-01-19T02:27:16.835Z,93.99
2017-01-19T02:27:57.482Z,94.46
2017-01-19T02:28:38.180Z,94.36
2017-01-19T02:29:18.800Z,93.99
2017-01-19T02:29:59.362Z,94.36
2017-01-19T02:30:40.040Z,94.36
2017-01-19T02:31:20.707Z,94.36
2017-01-19T02:32:01.311Z,94.27
2017-01-19T02:32:41.924Z,94.46
2017-01-19T02:33:22.537Z,93.99
2017-01-19T02:34:03.227Z,94.46
2017-01-19T02:34:43.924Z,94.36
2017-01-19T02:35:24.502Z,93.99
2017-01-19T02:36:05.147Z,94.27
2017-01-19T02:36:45.790Z,93.99
2017-01-19T02:37:26.443Z,94.36
2017-01-19T02:38:07.115Z,94.46
2017-01-19T02:38:47.759Z,93.99
2017-01-19T02:39:28.404Z,94.46
2017-01-19T02:40:09.047Z,94.36
2017-01-19T02:40:49.726Z,94.46
2017-01-19T02:41:30.389Z,94.36
2017-01-19T02:42:11.041Z,93.99
2017-01-19T02:42:51.695Z,93.99
2017-01-19T02:43:32.320Z,94.27
2017-01-19T02:44:12.999Z,93.99
2017-01-19T02:44:53.644Z,94.36
2017-01-19T02:45:34.322Z,94.08
2017-01-19T02:46:14.943Z,94.08
2017-01-19T02:46:55.617Z,94.36
2017-01-19T02:47:36.257Z,94.36
2017-01-19T02:48:16.887Z,94.36
2017-01-19T02:48:57.554Z,94.08
2017-01-19T02:49:39.216Z,93.99
2017-01-19T02:50:19.856Z,94.36
2017-01-19T02:51:00.421Z,93.99
2017-01-19T02:51:41.075Z,93.99
2017-01-19T02:52:21.712Z,94.36
2017-01-19T02:53:02.305Z,93.99
2017-01-19T02:53:42.953Z,94.36
2017-01-19T02:54:23.583Z,93.99
2017-01-19T02:55:04.147Z,93.99
2017-01-19T02:55:44.796Z,93.99
2017-01-19T02:56:25.388Z,93.89
2017-01-19T02:57:05.981Z,94.36
2017-01-19T02:57:46.543Z,94.27
2017-01-19T02:58:27.200Z,93.89
2017-01-19T02:59:07.796Z,93.99
2017-01-19T02:59:48.388Z,94.18
2017-01-19T03:00:28.960Z,94.18
2017-01-19T03:01:09.628Z,94.18
2017-01-19T03:01:50.284Z,94.18
2017-01-19T03:02:30.926Z,94.27
2017-01-19T03:03:11.573Z,94.08
2017-01-19T03:03:52.227Z,94.08
2017-01-19T03:04:32.889Z,94.08
2017-01-19T03:05:13.541Z,94.08
2017-01-19T03:05:54.175Z,94.18
2017-01-19T03:06:34.847Z,93.99
2017-01-19T03:07:15.489Z,93.99
2017-01-19T03:07:56.142Z,94.08
2017-01-19T03:08:36.810Z,94.08
2017-01-19T03:09:17.440Z,94.27
2017-01-19T03:09:58.103Z,94.27
2017-01-19T03:10:38.802Z,94.27
2017-01-19T03:11:19.384Z,94.27
2017-01-19T03:11:59.958Z,94.36
2017-01-19T03:12:41.626Z,94.27
2017-01-19T03:13:22.232Z,94.27
2017-01-19T03:14:02.815Z,94.36
2017-01-19T03:14:43.407Z,94.27
2017-01-19T03:15:24.052Z,94.36
2017-01-19T03:16:04.744Z,94.36
2017-01-19T03:16:45.306Z,94.36
2017-01-19T03:17:25.890Z,94.27
2017-01-19T03:18:06.499Z,94.27
2017-01-19T03:18:47.080Z,94.55
2017-01-19T03:19:27.651Z,94.41
2017-01-19T03:20:08.298Z,94.36
2017-01-19T03:20:48.980Z,94.36
2017-01-19T03:21:29.602Z,94.36
2017-01-19T03:22:10.257Z,94.36
2017-01-19T03:22:50.942Z,94.36
2017-01-19T03:23:31.581Z,94.18
2017-01-19T03:24:12.233Z,94.36
2017-01-19T03:24:52.900Z,94.18
2017-01-19T03:25:33.576Z,94.27
2017-01-19T03:26:14.173Z,94.27
2017-01-19T03:26:54.740Z,93.99
2017-01-19T03:27:35.404Z,94.27
2017-01-19T03:28:16.083Z,94.27
2017-01-19T03:28:56.686Z,93.89
2017-01-19T03:29:37.253Z,93.99
2017-01-19T03:30:17.903Z,93.99
2017-01-19T03:30:58.534Z,93.99
2017-01-19T03:31:39.221Z,93.8
2017-01-19T03:32:19.864Z,93.89
2017-01-19T03:33:00.516Z,93.8
2017-01-19T03:33:41.177Z,93.8
2017-01-19T03:34:21.818Z,93.8
2017-01-19T03:35:02.470Z,93.8
2017-01-19T03:35:43.061Z,93.61
2017-01-19T03:36:24.674Z,93.61
2017-01-19T03:37:05.253Z,93.89
2017-01-19T03:37:45.931Z,93.89
2017-01-19T03:38:26.594Z,93.8
2017-01-19T03:39:07.199Z,93.99
2017-01-19T03:39:47.772Z,93.99
2017-01-19T03:40:28.417Z,93.8
2017-01-19T03:41:09.039Z,93.8
2017-01-19T03:41:49.605Z,93.8
2017-01-19T03:42:30.282Z,93.8
2017-01-19T03:43:10.910Z,93.8
2017-01-19T03:43:51.488Z,94.08
2017-01-19T03:44:32.126Z,94.27
2017-01-19T03:45:12.768Z,94.18
2017-01-19T03:45:53.328Z,94.18
2017-01-19T03:46:33.972Z,94.18
2017-01-19T03:47:14.571Z,94.18
2017-01-19T03:47:55.160Z,94.08
2017-01-19T03:48:35.750Z,93.99
2017-01-19T03:49:16.385Z,94.18
2017-01-19T03:49:56.976Z,94.08
2017-01-19T03:50:37.632Z,93.8
2017-01-19T03:51:18.287Z,93.8
2017-01-19T03:51:58.937Z,94.18
2017-01-19T03:52:39.590Z,94.18
2017-01-19T03:53:20.271Z,93.23
2017-01-19T03:54:00.896Z,93.32
2017-01-19T03:54:41.547Z,93.23
2017-01-19T03:55:22.202Z,93.23
2017-01-19T03:56:02.856Z,93.23
2017-01-19T03:56:43.509Z,93.23
2017-01-19T03:57:24.161Z,93.61
2017-01-19T03:58:04.817Z,93.61
2017-01-19T03:58:45.466Z,93.51
2017-01-19T03:59:26.119Z,93.51
2017-01-19T04:00:06.710Z,93.7
2017-01-19T04:00:47.285Z,93.61
2017-01-19T04:01:27.935Z,93.61
2017-01-19T04:02:08.546Z,93.42
2017-01-19T04:02:49.218Z,93.42
2017-01-19T04:03:29.801Z,93.32
2017-01-19T04:04:10.426Z,93.61
2017-01-19T04:04:51.034Z,93.61
2017-01-19T04:05:31.622Z,93.51
2017-01-19T04:06:12.172Z,93.51
2017-01-19T04:06:52.865Z,93.32
2017-01-19T04:07:33.516Z,93.04
2017-01-19T04:08:14.145Z,93.32
2017-01-19T04:08:54.814Z,93.32
2017-01-19T04:09:36.193Z,93.04
2017-01-19T04:10:16.843Z,93.23
2017-01-19T04:10:57.487Z,93.23
2017-01-19T04:11:38.140Z,93.23
2017-01-19T04:12:18.790Z,93.23
2017-01-19T04:12:59.456Z,93.42
2017-01-19T04:13:41.137Z,93.23
2017-01-19T04:14:21.824Z,93.13
2017-01-19T04:15:02.427Z,93.51
2017-01-19T04:15:43.074Z,92.85
2017-01-19T04:16:23.742Z,92.57
2017-01-19T04:17:04.393Z,92.85
2017-01-19T04:17:46.073Z,92.57
2017-01-19T04:18:26.726Z,92.57
2017-01-19T04:19:07.370Z,92.66
2017-01-19T04:19:48.039Z,92.95
2017-01-19T04:20:28.687Z,92.76
2017-01-19T04:21:09.348Z,92.95
2017-01-19T04:21:49.988Z,92.95
2017-01-19T04:22:31.662Z,92.85
2017-01-19T04:23:12.327Z,92.47
2017-01-19T04:23:53.004Z,92.76
2017-01-19T04:24:33.628Z,92.43
2017-01-19T04:25:14.268Z,92.76
2017-01-19T04:25:54.908Z,92.57
2017-01-19T04:26:35.471Z,92.1
2017-01-19T04:27:17.157Z,92.1
2017-01-19T04:27:57.787Z,92.57
2017-01-19T04:28:38.379Z,92.57
2017-01-19T04:29:19.013Z,92.66
2017-01-19T04:30:00.659Z,92.57
2017-01-19T04:30:41.218Z,92.47
2017-01-19T04:31:21.894Z,92.38
2017-01-19T04:32:02.474Z,92.76
2017-01-19T04:32:43.076Z,92.66
2017-01-19T04:33:23.653Z,92.76
2017-01-19T04:34:04.301Z,92.29
2017-01-19T04:34:44.885Z,92.76
2017-01-19T04:35:25.481Z,92.76
2017-01-19T04:36:06.057Z,92.57
2017-01-19T04:36:46.703Z,92.47
2017-01-19T04:37:27.294Z,92.38
2017-01-19T04:38:07.881Z,92.47
2017-01-19T04:38:48.465Z,92.47
2017-01-19T04:39:29.125Z,92.47
2017-01-19T04:40:09.802Z,92.66
2017-01-19T04:40:50.400Z,92.66
2017-01-19T04:41:30.969Z,92.66
2017-01-19T04:42:11.638Z,92.57
2017-01-19T04:42:52.314Z,92.57
2017-01-19T04:43:32.909Z,92.66
2017-01-19T04:44:13.473Z,92.47
2017-01-19T04:44:54.137Z,92.76
2017-01-19T04:45:35.786Z,92.66
2017-01-19T04:46:16.343Z,92.76
2017-01-19T04:46:57.016Z,92.66
2017-01-19T04:47:37.642Z,92.76
2017-01-19T04:48:18.224Z,92.76
2017-01-19T04:48:58.874Z,92.66
2017-01-19T04:49:39.499Z,92.66
2017-01-19T04:50:20.074Z,92.76
2017-01-19T04:51:00.718Z,92.76
2017-01-19T04:51:41.370Z,92.76
2017-01-19T04:52:22.032Z,92.76
2017-01-19T04:53:02.681Z,92.76
2017-01-19T04:53:44.369Z,92.76
2017-01-19T04:54:25.007Z,92.76
2017-01-19T04:55:05.672Z,92.38
2017-01-19T04:55:47.345Z,92.66
2017-01-19T04:56:28.005Z,92.38
2017-01-19T04:57:08.653Z,92.47
2017-01-19T04:57:49.304Z,92.38
2017-01-19T04:58:29.961Z,92.57
2017-01-19T04:59:10.595Z,92.57
2017-01-19T04:59:51.255Z,92.57
2017-01-19T05:00:31.886Z,92.76
2017-01-19T05:01:12.477Z,92.76
2017-01-19T05:01:53.118Z,92.76
2017-01-19T05:02:33.745Z,92.47
2017-01-19T05:03:14.307Z,92.57
2017-01-19T05:03:54.974Z,92.66
2017-01-19T05:04:35.601Z,92.66
2017-01-19T05:05:16.164Z,92.57
2017-01-19T05:05:56.854Z,92.57
2017-01-19T05:06:37.453Z,92.57
2017-01-19T05:07:18.037Z,92.47
2017-01-19T05:07:58.684Z,92.76
2017-01-19T05:08:39.315Z,92.95
2017-01-19T05:09:19.872Z,92.95
2017-01-19T05:10:00.534Z,92.95
2017-01-19T05:10:41.176Z,93.04
2017-01-19T05:11:22.856Z,92.66
2017-01-19T05:12:03.492Z,92.76
2017-01-19T05:12:45.170Z,92.57
2017-01-19T05:13:25.829Z,92.76
2017-01-19T05:14:06.482Z,92.76
2017-01-19T05:14:47.135Z,92.76
2017-01-19T05:15:27.699Z,92.76
2017-01-19T05:16:08.362Z,92.76
2017-01-19T05:16:48.991Z,92.71
2017-01-19T05:17:29.542Z,92.76
2017-01-19T05:18:10.120Z,93.47
2017-01-19T05:18:50.769Z,92.71
2017-01-19T05:19:31.337Z,93.47
2017-01-19T05:20:11.943Z,93.18
2017-01-19T05:20:52.598Z,93.18
2017-01-19T05:21:33.257Z,93.28
2017-01-19T05:22:13.907Z,93.18
2017-01-19T05:22:54.556Z,93.18
2017-01-19T05:23:35.207Z,93.09
2017-01-19T05:24:15.858Z,93.18
2017-01-19T05:24:56.522Z,93.09
2017-01-19T05:25:37.095Z,93.09
2017-01-19T05:26:17.729Z,93.28
2017-01-19T05:26:59.354Z,92.9
2017-01-19T05:27:40.973Z,93.28
2017-01-19T05:28:21.549Z,92.99
2017-01-19T05:29:02.263Z,93.65
2017-01-19T05:29:42.884Z,92.8
2017-01-19T05:30:23.476Z,93.47
2017-01-19T05:31:04.152Z,93.47
2017-01-19T05:31:44.787Z,93.47
2017-01-19T05:32:25.441Z,93.47
2017-01-19T05:33:06.097Z,93.47
2017-01-19T05:33:46.741Z,93.65
2017-01-19T05:34:27.400Z,93.56
2017-01-19T05:35:09.081Z,93.47
2017-01-19T05:35:49.722Z,93.18
2017-01-19T05:36:30.380Z,93.18
2017-01-19T05:37:11.037Z,93.18
2017-01-19T05:37:51.689Z,93.37
2017-01-19T05:38:32.340Z,93.28
2017-01-19T05:39:13.012Z,93.37
2017-01-19T05:39:53.652Z,93.37
2017-01-19T05:40:34.198Z,93.28
2017-01-19T05:41:14.889Z,93.65
2017-01-19T05:41:55.556Z,93.47
2017-01-19T05:42:36.155Z,93.37
2017-01-19T05:43:16.730Z,93.37
2017-01-19T05:43:57.375Z,93.28
2017-01-19T05:44:38.994Z,93.47
2017-01-19T05:45:19.578Z,93.47
2017-01-19T05:46:00.139Z,93.37
2017-01-19T05:46:40.808Z,93.47
2017-01-19T05:47:21.465Z,93.47
2017-01-19T05:48:03.079Z,93.47
2017-01-19T05:48:43.689Z,93.47
2017-01-19T05:49:24.342Z,93.56
2017-01-19T05:50:04.981Z,93.18
2017-01-19T05:50:45.610Z,93.47
2017-01-19T05:51:26.183Z,93.47
2017-01-19T05:52:06.843Z,93.47
2017-01-19T05:52:47.484Z,93.18
2017-01-19T05:53:28.061Z,93.37
2017-01-19T05:54:08.711Z,93.09
2017-01-19T05:54:49.337Z,93.28
2017-01-19T05:55:29.915Z,93.09
2017-01-19T05:56:10.559Z,93.37
2017-01-19T05:56:51.204Z,93.28
2017-01-19T05:57:31.876Z,93.37
2017-01-19T05:58:12.520Z,94.03
2017-01-19T05:58:53.174Z,93.37
2017-01-19T05:59:33.838Z,93.28
2017-01-19T06:00:15.566Z,93.28
2017-01-19T06:00:56.159Z,93.37
2017-01-19T06:01:36.811Z,93.18
2017-01-19T06:02:17.466Z,93.75
2017-01-19T06:02:58.107Z,93.75
2017-01-19T06:03:38.765Z,93.75
2017-01-19T06:04:19.405Z,93.84
2017-01-19T06:05:00.085Z,94.03
2017-01-19T06:05:40.714Z,93.75
2017-01-19T06:06:21.374Z,93.75
2017-01-19T06:07:02.031Z,93.75
2017-01-19T06:07:43.718Z,94.13
2017-01-19T06:08:24.382Z,93.75
2017-01-19T06:09:05.012Z,94.13
2017-01-19T06:09:45.674Z,94.13
2017-01-19T06:10:26.322Z,94.03
2017-01-19T06:11:06.953Z,94.03
2017-01-19T06:11:47.523Z,94.22
2017-01-19T06:12:28.174Z,94.03
2017-01-19T06:13:08.811Z,94.03
2017-01-19T06:13:49.391Z,93.94
2017-01-19T06:14:30.038Z,93.65
2017-01-19T06:15:10.666Z,93.75
2017-01-19T06:15:51.237Z,93.94
2017-01-19T06:16:31.900Z,93.56
2017-01-19T06:17:12.477Z,93.56
2017-01-19T06:17:53.079Z,93.94
2017-01-19T06:18:33.646Z,93.94
2017-01-19T06:19:14.286Z,93.56
2017-01-19T06:19:56.039Z,93.56
2017-01-19T06:20:36.705Z,93.84
2017-01-19T06:21:17.365Z,93.94
2017-01-19T06:21:58.044Z,94.41
2017-01-19T06:22:38.666Z,93.94
2017-01-19T06:23:19.317Z,93.75
2017-01-19T06:23:59.974Z,94.22
2017-01-19T06:24:40.621Z,94.13
2017-01-19T06:25:21.202Z,94.13
2017-01-19T06:26:01.843Z,94.32
2017-01-19T06:26:43.463Z,94.32
2017-01-19T06:27:24.154Z,94.32
2017-01-19T06:28:04.738Z,94.41
2017-01-19T06:28:45.375Z,94.51
2017-01-19T06:29:25.973Z,94.41
2017-01-19T06:30:06.566Z,94.32
2017-01-19T06:30:47.130Z,94.32
2017-01-19T06:31:27.804Z,94.32
2017-01-19T06:32:08.444Z,94.51
2017-01-19T06:32:49.095Z,94.22
2017-01-19T06:33:29.754Z,94.41
2017-01-19T06:34:10.404Z,94.41
2017-01-19T06:34:51.056Z,94.32
2017-01-19T06:35:31.711Z,94.36
2017-01-19T06:36:12.362Z,94.22
2017-01-19T06:36:53.014Z,94.13
2017-01-19T06:37:33.668Z,93.99
2017-01-19T06:38:14.306Z,93.89
2017-01-19T06:38:54.994Z,94.27
2017-01-19T06:39:35.628Z,93.99
2017-01-19T06:40:16.277Z,93.99
2017-01-19T06:40:56.871Z,93.89
2017-01-19T06:41:37.463Z,93.99
2017-01-19T06:42:18.039Z,93.89
2017-01-19T06:42:58.678Z,93.89
2017-01-19T06:43:39.273Z,93.89
2017-01-19T06:44:19.866Z,93.89
2017-01-19T06:45:00.422Z,93.89
2017-01-19T06:45:41.096Z,93.8
2017-01-19T06:46:21.725Z,93.99
2017-01-19T06:47:02.294Z,93.89
2017-01-19T06:47:42.947Z,93.8
2017-01-19T06:48:23.576Z,93.8
2017-01-19T06:49:04.151Z,93.61
2017-01-19T06:49:44.709Z,93.89
2017-01-19T06:50:25.291Z,93.89
2017-01-19T06:51:05.897Z,93.89
2017-01-19T06:51:46.560Z,93.8
2017-01-19T06:52:27.211Z,93.61
2017-01-19T06:53:07.862Z,93.8
2017-01-19T06:53:48.516Z,94.08
2017-01-19T06:54:29.162Z,93.61
2017-01-19T06:55:09.823Z,93.61
2017-01-19T06:55:50.485Z,93.99
2017-01-19T06:56:31.149Z,93.61
2017-01-19T06:57:11.786Z,93.8
2017-01-19T06:57:52.433Z,93.8
2017-01-19T06:58:33.098Z,93.8
2017-01-19T06:59:13.751Z,93.8
2017-01-19T06:59:54.396Z,93.99
2017-01-19T07:00:35.049Z,93.8
2017-01-19T07:01:16.716Z,94.08
2017-01-19T07:01:57.373Z,94.08
2017-01-19T07:02:38.030Z,93.89
2017-01-19T07:03:18.691Z,94.18
2017-01-19T07:03:59.339Z,94.08
2017-01-19T07:04:39.991Z,93.99
2017-01-19T07:05:20.663Z,94.27
2017-01-19T07:06:01.336Z,93.8
2017-01-19T07:06:42.061Z,93.8
2017-01-19T07:07:22.626Z,94.08
2017-01-19T07:08:03.305Z,94.08
2017-01-19T07:08:43.939Z,94.08
2017-01-19T07:09:24.533Z,93.99
2017-01-19T07:10:05.120Z,93.8
2017-01-19T07:10:45.762Z,93.99
2017-01-19T07:11:26.359Z,93.7
2017-01-19T07:12:06.999Z,94.18
2017-01-19T07:12:47.567Z,93.32
2017-01-19T07:13:28.159Z,93.32
2017-01-19T07:14:08.769Z,93.32
2017-01-19T07:14:49.362Z,93.32
2017-01-19T07:15:29.924Z,93.32
2017-01-19T07:16:10.571Z,93.42
2017-01-19T07:16:51.159Z,93.42
2017-01-19T07:17:31.751Z,93.23
2017-01-19T07:18:12.338Z,93.61
2017-01-19T07:18:52.978Z,93.61
2017-01-19T07:19:33.573Z,93.61
2017-01-19T07:20:14.269Z,93.42
2017-01-19T07:20:54.835Z,93.61
2017-01-19T07:21:35.492Z,93.51
2017-01-19T07:22:16.084Z,93.51
2017-01-19T07:22:56.678Z,93.42
2017-01-19T07:23:37.256Z,93.42
2017-01-19T07:24:17.917Z,93.51
2017-01-19T07:24:58.590Z,93.42
2017-01-19T07:25:39.191Z,93.32
2017-01-19T07:26:20.870Z,93.23
2017-01-19T07:27:01.624Z,93.51
2017-01-19T07:27:42.369Z,93.13
2017-01-19T07:28:23.033Z,93.61
2017-01-19T07:29:03.683Z,93.61
2017-01-19T07:29:44.332Z,93.51
2017-01-19T07:30:24.989Z,93.32
2017-01-19T07:31:05.639Z,93.23
2017-01-19T07:31:46.299Z,93.23
2017-01-19T07:32:26.948Z,93.13
2017-01-19T07:33:07.594Z,93.23
2017-01-19T07:33:48.248Z,93.04
2017-01-19T07:34:28.814Z,92.95
2017-01-19T07:35:09.457Z,93.04
2017-01-19T07:35:50.104Z,93.23
2017-01-19T07:36:30.775Z,93.23
2017-01-19T07:37:11.421Z,93.23
2017-01-19T07:37:52.059Z,93.04
2017-01-19T07:38:32.718Z,92.76
2017-01-19T07:39:13.376Z,92.85
2017-01-19T07:39:54.031Z,92.95
2017-01-19T07:40:34.985Z,92.57
2017-01-19T07:41:15.642Z,92.57
2017-01-19T07:41:56.295Z,92.95
2017-01-19T07:42:36.928Z,92.95
2017-01-19T07:43:18.109Z,92.95
2017-01-19T07:43:58.761Z,93.23
2017-01-19T07:44:39.414Z,92.47
2017-01-19T07:45:20.060Z,92.85
2017-01-19T07:46:00.808Z,92.57
2017-01-19T07:46:41.485Z,92.66
2017-01-19T07:47:22.153Z,92.57
2017-01-19T07:48:02.787Z,92.57
2017-01-19T07:48:43.466Z,92.66
2017-01-19T07:49:24.067Z,92.57
2017-01-19T07:50:04.646Z,92.38
2017-01-19T07:50:45.294Z,92.47
2017-01-19T07:51:25.980Z,92.47
2017-01-19T07:52:07.632Z,92.66
2017-01-19T07:52:48.276Z,92.38
2017-01-19T07:53:28.968Z,92.57
2017-01-19T07:54:09.596Z,92.85
2017-01-19T07:54:50.235Z,92.76
2017-01-19T07:55:31.579Z,92.29
2017-01-19T07:56:12.176Z,92.66
2017-01-19T07:56:52.812Z,92.57
2017-01-19T07:57:33.488Z,92.47
2017-01-19T07:58:14.136Z,92.66
2017-01-19T07:58:54.782Z,92.66
2017-01-19T07:59:35.423Z,92.66
2017-01-19T08:00:16.078Z,92.57
2017-01-19T08:00:56.730Z,92.52
2017-01-19T08:01:37.375Z,92.8
2017-01-19T08:02:18.039Z,92.71
2017-01-19T08:02:58.702Z,92.9
2017-01-19T08:03:39.321Z,92.43
2017-01-19T08:04:19.999Z,91.96
2017-01-19T08:05:00.643Z,92.05
2017-01-19T08:05:41.327Z,92.14
2017-01-19T08:06:22.919Z,92.33
2017-01-19T08:07:03.513Z,91.96
2017-01-19T08:07:44.096Z,91.96
2017-01-19T08:08:24.736Z,91.96
2017-01-19T08:09:05.327Z,92.05
2017-01-19T08:09:45.910Z,91.96
2017-01-19T08:10:26.474Z,92.14
2017-01-19T08:11:07.164Z,91.96
2017-01-19T08:11:48.815Z,92.14
2017-01-19T08:12:29.519Z,92.24
2017-01-19T08:13:10.116Z,91.96
2017-01-19T08:13:50.778Z,92.14
2017-01-19T08:14:31.502Z,92.14
2017-01-19T08:15:12.096Z,92.43
2017-01-19T08:15:52.739Z,92.61
2017-01-19T08:16:33.413Z,92.43
2017-01-19T08:17:14.033Z,91.49
2017-01-19T08:17:54.676Z,91.49
2017-01-19T08:18:35.318Z,91.49
2017-01-19T08:19:15.979Z,91.49
2017-01-19T08:19:56.630Z,91.49
2017-01-19T08:20:37.306Z,91.39
2017-01-19T08:21:17.933Z,91.86
2017-01-19T08:21:58.582Z,91.49
2017-01-19T08:22:39.240Z,91.86
2017-01-19T08:23:19.889Z,91.49
2017-01-19T08:24:00.652Z,91.86
2017-01-19T08:24:41.305Z,91.86
2017-01-19T08:25:21.961Z,91.86
2017-01-19T08:26:02.643Z,91.86
2017-01-19T08:26:44.294Z,91.77
2017-01-19T08:27:24.944Z,91.77
2017-01-19T08:28:05.614Z,91.86
2017-01-19T08:28:48.287Z,92.05
2017-01-19T08:29:28.955Z,91.67
2017-01-19T08:30:09.536Z,91.58
2017-01-19T08:30:50.169Z,91.96
2017-01-19T08:31:30.832Z,91.86
2017-01-19T08:32:12.491Z,91.86
2017-01-19T08:32:53.147Z,92.05
2017-01-19T08:33:33.808Z,91.96
2017-01-19T08:34:14.458Z,91.86
2017-01-19T08:34:55.115Z,91.67
2017-01-19T08:35:35.797Z,91.58
2017-01-19T08:36:16.418Z,91.77
2017-01-19T08:36:57.073Z,91.77
2017-01-19T08:37:37.726Z,91.96
2017-01-19T08:38:18.385Z,91.96
2017-01-19T08:38:59.036Z,91.86
2017-01-19T08:39:39.672Z,91.58
2017-01-19T08:40:20.367Z,91.77
2017-01-19T08:41:00.998Z,91.86
2017-01-19T08:41:41.655Z,91.96
2017-01-19T08:42:22.284Z,91.86
2017-01-19T08:43:02.944Z,91.77
2017-01-19T08:43:43.624Z,91.86
2017-01-19T08:44:24.237Z,91.49
2017-01-19T08:45:04.899Z,91.49